sensor_id;sensor_type;location;lat;lon;timestamp;pressure;altitude;pressure_sealevel;temperature
10869;BMP180;62667;48.698;8.762;2022-10-16T00:01:07;95847.00;;;13.90
10869;BMP180;62667;48.698;8.762;2022-10-16T00:03:34;95858.00;;;13.80
10869;BMP180;62667;48.698;8.762;2022-10-16T00:06:02;95868.00;;;13.80
10869;BMP180;62667;48.698;8.762;2022-10-16T00:08:28;95865.00;;;13.80
10869;BMP180;62667;48.698;8.762;2022-10-16T00:11:02;95863.00;;;13.70
10869;BMP180;62667;48.698;8.762;2022-10-16T00:13:29;95865.00;;;13.70
10869;BMP180;62667;48.698;8.762;2022-10-16T00:15:59;95860.00;;;13.70
10869;BMP180;62667;48.698;8.762;2022-10-16T00:18:29;95867.00;;;13.70
10869;BMP180;62667;48.698;8.762;2022-10-16T00:21:03;95865.00;;;13.60
10869;BMP180;62667;48.698;8.762;2022-10-16T00:23:29;95865.00;;;13.60
10869;BMP180;62667;48.698;8.762;2022-10-16T00:25:57;95860.00;;;13.60
10869;BMP180;62667;48.698;8.762;2022-10-16T00:28:24;95866.00;;;13.60
10869;BMP180;62667;48.698;8.762;2022-10-16T00:30:51;95867.00;;;13.60
10869;BMP180;62667;48.698;8.762;2022-10-16T00:33:18;95862.00;;;13.60
10869;BMP180;62667;48.698;8.762;2022-10-16T00:35:45;95863.00;;;13.70
10869;BMP180;62667;48.698;8.762;2022-10-16T00:38:12;95864.00;;;13.70
10869;BMP180;62667;48.698;8.762;2022-10-16T00:40:39;95863.00;;;13.70
10869;BMP180;62667;48.698;8.762;2022-10-16T00:43:12;95855.00;;;13.80
10869;BMP180;62667;48.698;8.762;2022-10-16T00:45:40;95865.00;;;13.80
10869;BMP180;62667;48.698;8.762;2022-10-16T00:48:12;95877.00;;;13.80
10869;BMP180;62667;48.698;8.762;2022-10-16T00:50:40;95869.00;;;13.90
10869;BMP180;62667;48.698;8.762;2022-10-16T00:53:10;95863.00;;;13.80
10869;BMP180;62667;48.698;8.762;2022-10-16T00:55:37;95867.00;;;13.80
10869;BMP180;62667;48.698;8.762;2022-10-16T00:58:04;95864.00;;;13.80
10869;BMP180;62667;48.698;8.762;2022-10-16T01:00:31;95867.00;;;13.70
10869;BMP180;62667;48.698;8.762;2022-10-16T01:03:00;95861.00;;;13.80
10869;BMP180;62667;48.698;8.762;2022-10-16T01:05:34;95875.00;;;13.80
10869;BMP180;62667;48.698;8.762;2022-10-16T01:08:11;95875.00;;;13.80
10869;BMP180;62667;48.698;8.762;2022-10-16T01:10:48;95865.00;;;13.80
10869;BMP180;62667;48.698;8.762;2022-10-16T01:13:22;95876.00;;;13.80
10869;BMP180;62667;48.698;8.762;2022-10-16T01:15:56;95874.00;;;13.80
10869;BMP180;62667;48.698;8.762;2022-10-16T01:18:34;95872.00;;;13.70
10869;BMP180;62667;48.698;8.762;2022-10-16T01:21:08;95879.00;;;13.70
10869;BMP180;62667;48.698;8.762;2022-10-16T01:23:47;95872.00;;;13.60
10869;BMP180;62667;48.698;8.762;2022-10-16T01:26:33;95874.00;;;13.70
10869;BMP180;62667;48.698;8.762;2022-10-16T01:29:11;95872.00;;;13.60
10869;BMP180;62667;48.698;8.762;2022-10-16T01:31:47;95868.00;;;13.70
10869;BMP180;62667;48.698;8.762;2022-10-16T01:34:17;95874.00;;;13.70
10869;BMP180;62667;48.698;8.762;2022-10-16T01:36:52;95869.00;;;13.70
10869;BMP180;62667;48.698;8.762;2022-10-16T01:39:24;95866.00;;;13.70
10869;BMP180;62667;48.698;8.762;2022-10-16T01:42:01;95866.00;;;13.70
10869;BMP180;62667;48.698;8.762;2022-10-16T01:44:33;95870.00;;;13.70
10869;BMP180;62667;48.698;8.762;2022-10-16T01:47:05;95843.00;;;13.70
10869;BMP180;62667;48.698;8.762;2022-10-16T01:49:38;95866.00;;;13.70
10869;BMP180;62667;48.698;8.762;2022-10-16T01:52:10;95850.00;;;13.70
10869;BMP180;62667;48.698;8.762;2022-10-16T01:54:43;95860.00;;;13.70
10869;BMP180;62667;48.698;8.762;2022-10-16T01:57:14;95868.00;;;13.70
10869;BMP180;62667;48.698;8.762;2022-10-16T01:59:46;95876.00;;;13.70
10869;BMP180;62667;48.698;8.762;2022-10-16T02:02:15;95876.00;;;13.70
10869;BMP180;62667;48.698;8.762;2022-10-16T02:04:46;95879.00;;;13.60
10869;BMP180;62667;48.698;8.762;2022-10-16T02:07:14;95875.00;;;13.50
10869;BMP180;62667;48.698;8.762;2022-10-16T02:09:41;95863.00;;;13.60
10869;BMP180;62667;48.698;8.762;2022-10-16T02:12:14;95870.00;;;13.50
10869;BMP180;62667;48.698;8.762;2022-10-16T02:14:42;95855.00;;;13.60
10869;BMP180;62667;48.698;8.762;2022-10-16T02:17:14;95855.00;;;13.60
10869;BMP180;62667;48.698;8.762;2022-10-16T02:19:43;95852.00;;;13.60
10869;BMP180;62667;48.698;8.762;2022-10-16T02:22:16;95856.00;;;13.60
10869;BMP180;62667;48.698;8.762;2022-10-16T02:24:52;95862.00;;;13.60
10869;BMP180;62667;48.698;8.762;2022-10-16T02:27:25;95860.00;;;13.70
10869;BMP180;62667;48.698;8.762;2022-10-16T02:30:02;95851.00;;;13.70
10869;BMP180;62667;48.698;8.762;2022-10-16T02:32:36;95855.00;;;13.70
10869;BMP180;62667;48.698;8.762;2022-10-16T02:35:05;95861.00;;;13.70
10869;BMP180;62667;48.698;8.762;2022-10-16T02:37:32;95868.00;;;13.70
10869;BMP180;62667;48.698;8.762;2022-10-16T02:39:59;95878.00;;;13.60
10869;BMP180;62667;48.698;8.762;2022-10-16T02:42:33;95872.00;;;13.60
10869;BMP180;62667;48.698;8.762;2022-10-16T02:45:00;95873.00;;;13.60
10869;BMP180;62667;48.698;8.762;2022-10-16T02:47:26;95863.00;;;13.60
10869;BMP180;62667;48.698;8.762;2022-10-16T02:49:53;95874.00;;;13.60
10869;BMP180;62667;48.698;8.762;2022-10-16T02:52:19;95875.00;;;13.60
10869;BMP180;62667;48.698;8.762;2022-10-16T02:54:46;95861.00;;;13.50
10869;BMP180;62667;48.698;8.762;2022-10-16T02:57:12;95874.00;;;13.60
10869;BMP180;62667;48.698;8.762;2022-10-16T02:59:39;95866.00;;;13.50
10869;BMP180;62667;48.698;8.762;2022-10-16T03:02:08;95877.00;;;13.60
10869;BMP180;62667;48.698;8.762;2022-10-16T03:04:35;95878.00;;;13.60
10869;BMP180;62667;48.698;8.762;2022-10-16T03:07:02;95869.00;;;13.60
10869;BMP180;62667;48.698;8.762;2022-10-16T03:09:30;95864.00;;;13.60
10869;BMP180;62667;48.698;8.762;2022-10-16T03:11:59;95880.00;;;13.60
10869;BMP180;62667;48.698;8.762;2022-10-16T03:14:28;95872.00;;;13.60
10869;BMP180;62667;48.698;8.762;2022-10-16T03:16:56;95877.00;;;13.60
10869;BMP180;62667;48.698;8.762;2022-10-16T03:19:23;95884.00;;;13.60
10869;BMP180;62667;48.698;8.762;2022-10-16T03:21:50;95880.00;;;13.60
10869;BMP180;62667;48.698;8.762;2022-10-16T03:24:16;95884.00;;;13.60
10869;BMP180;62667;48.698;8.762;2022-10-16T03:26:43;95889.00;;;13.60
10869;BMP180;62667;48.698;8.762;2022-10-16T03:29:11;95881.00;;;13.60
10869;BMP180;62667;48.698;8.762;2022-10-16T03:31:38;95892.00;;;13.60
10869;BMP180;62667;48.698;8.762;2022-10-16T03:34:04;95895.00;;;13.60
10869;BMP180;62667;48.698;8.762;2022-10-16T03:36:31;95893.00;;;13.50
10869;BMP180;62667;48.698;8.762;2022-10-16T03:38:58;95895.00;;;13.60
10869;BMP180;62667;48.698;8.762;2022-10-16T03:41:24;95883.00;;;13.60
10869;BMP180;62667;48.698;8.762;2022-10-16T03:43:51;95891.00;;;13.60
10869;BMP180;62667;48.698;8.762;2022-10-16T03:46:19;95881.00;;;13.50
10869;BMP180;62667;48.698;8.762;2022-10-16T03:48:46;95890.00;;;13.60
10869;BMP180;62667;48.698;8.762;2022-10-16T03:51:12;95885.00;;;13.60
10869;BMP180;62667;48.698;8.762;2022-10-16T03:53:41;95886.00;;;13.60
10869;BMP180;62667;48.698;8.762;2022-10-16T03:56:08;95892.00;;;13.60
10869;BMP180;62667;48.698;8.762;2022-10-16T03:58:34;95888.00;;;13.60
10869;BMP180;62667;48.698;8.762;2022-10-16T04:01:03;95883.00;;;13.70
10869;BMP180;62667;48.698;8.762;2022-10-16T04:03:29;95881.00;;;13.70
10869;BMP180;62667;48.698;8.762;2022-10-16T04:05:56;95887.00;;;13.70
10869;BMP180;62667;48.698;8.762;2022-10-16T04:08:22;95888.00;;;13.70
10869;BMP180;62667;48.698;8.762;2022-10-16T04:10:49;95872.00;;;13.80
10869;BMP180;62667;48.698;8.762;2022-10-16T04:13:16;95873.00;;;13.80
10869;BMP180;62667;48.698;8.762;2022-10-16T04:15:44;95879.00;;;13.80
10869;BMP180;62667;48.698;8.762;2022-10-16T04:18:13;95873.00;;;13.80
10869;BMP180;62667;48.698;8.762;2022-10-16T04:20:39;95882.00;;;13.80
10869;BMP180;62667;48.698;8.762;2022-10-16T04:23:05;95886.00;;;13.90
10869;BMP180;62667;48.698;8.762;2022-10-16T04:25:32;95883.00;;;13.90
10869;BMP180;62667;48.698;8.762;2022-10-16T04:27:59;95887.00;;;13.80
10869;BMP180;62667;48.698;8.762;2022-10-16T04:30:27;95894.00;;;13.70
10869;BMP180;62667;48.698;8.762;2022-10-16T04:32:54;95890.00;;;13.70
10869;BMP180;62667;48.698;8.762;2022-10-16T04:35:21;95886.00;;;13.70
10869;BMP180;62667;48.698;8.762;2022-10-16T04:37:48;95896.00;;;13.70
10869;BMP180;62667;48.698;8.762;2022-10-16T04:40:15;95900.00;;;13.60
10869;BMP180;62667;48.698;8.762;2022-10-16T04:42:41;95901.00;;;13.80
10869;BMP180;62667;48.698;8.762;2022-10-16T04:45:09;95911.00;;;13.70
10869;BMP180;62667;48.698;8.762;2022-10-16T04:47:36;95916.00;;;13.80
10869;BMP180;62667;48.698;8.762;2022-10-16T04:50:03;95922.00;;;13.90
10869;BMP180;62667;48.698;8.762;2022-10-16T04:52:32;95928.00;;;13.80
10869;BMP180;62667;48.698;8.762;2022-10-16T04:54:59;95932.00;;;13.70
10869;BMP180;62667;48.698;8.762;2022-10-16T04:57:28;95919.00;;;13.70
10869;BMP180;62667;48.698;8.762;2022-10-16T04:59:55;95912.00;;;13.80
10869;BMP180;62667;48.698;8.762;2022-10-16T05:02:22;95916.00;;;13.60
10869;BMP180;62667;48.698;8.762;2022-10-16T05:04:48;95909.00;;;13.60
10869;BMP180;62667;48.698;8.762;2022-10-16T05:07:15;95906.00;;;13.50
10869;BMP180;62667;48.698;8.762;2022-10-16T05:09:41;95903.00;;;13.40
10869;BMP180;62667;48.698;8.762;2022-10-16T05:12:10;95905.00;;;13.40
10869;BMP180;62667;48.698;8.762;2022-10-16T05:14:36;95909.00;;;13.40
10869;BMP180;62667;48.698;8.762;2022-10-16T05:17:03;95903.00;;;13.40
10869;BMP180;62667;48.698;8.762;2022-10-16T05:19:32;95916.00;;;13.40
10869;BMP180;62667;48.698;8.762;2022-10-16T05:21:59;95922.00;;;13.50
10869;BMP180;62667;48.698;8.762;2022-10-16T05:24:26;95922.00;;;13.50
10869;BMP180;62667;48.698;8.762;2022-10-16T05:26:52;95919.00;;;13.50
10869;BMP180;62667;48.698;8.762;2022-10-16T05:29:19;95899.00;;;13.50
10869;BMP180;62667;48.698;8.762;2022-10-16T05:31:46;95923.00;;;13.50
10869;BMP180;62667;48.698;8.762;2022-10-16T05:34:13;95929.00;;;13.50
10869;BMP180;62667;48.698;8.762;2022-10-16T05:36:40;95926.00;;;13.50
10869;BMP180;62667;48.698;8.762;2022-10-16T05:39:06;95931.00;;;13.40
10869;BMP180;62667;48.698;8.762;2022-10-16T05:41:33;95927.00;;;13.60
10869;BMP180;62667;48.698;8.762;2022-10-16T05:44:00;95931.00;;;13.50
10869;BMP180;62667;48.698;8.762;2022-10-16T05:46:26;95932.00;;;13.40
10869;BMP180;62667;48.698;8.762;2022-10-16T05:48:55;95953.00;;;13.50
10869;BMP180;62667;48.698;8.762;2022-10-16T05:51:21;95956.00;;;13.30
10869;BMP180;62667;48.698;8.762;2022-10-16T05:53:52;95949.00;;;13.30
10869;BMP180;62667;48.698;8.762;2022-10-16T05:56:19;95949.00;;;13.20
10869;BMP180;62667;48.698;8.762;2022-10-16T05:58:45;95960.00;;;13.20
10869;BMP180;62667;48.698;8.762;2022-10-16T06:01:14;95957.00;;;13.10
10869;BMP180;62667;48.698;8.762;2022-10-16T06:03:41;95959.00;;;13.20
10869;BMP180;62667;48.698;8.762;2022-10-16T06:06:09;95965.00;;;13.20
10869;BMP180;62667;48.698;8.762;2022-10-16T06:08:36;95958.00;;;13.20
10869;BMP180;62667;48.698;8.762;2022-10-16T06:11:06;95961.00;;;13.20
10869;BMP180;62667;48.698;8.762;2022-10-16T06:13:32;95963.00;;;13.20
10869;BMP180;62667;48.698;8.762;2022-10-16T06:16:00;95951.00;;;13.30
10869;BMP180;62667;48.698;8.762;2022-10-16T06:18:28;95950.00;;;13.40
10869;BMP180;62667;48.698;8.762;2022-10-16T06:20:56;95951.00;;;13.40
10869;BMP180;62667;48.698;8.762;2022-10-16T06:23:23;95961.00;;;13.40
10869;BMP180;62667;48.698;8.762;2022-10-16T06:25:50;95954.00;;;13.50
10869;BMP180;62667;48.698;8.762;2022-10-16T06:28:17;95965.00;;;13.50
10869;BMP180;62667;48.698;8.762;2022-10-16T06:30:43;95972.00;;;13.60
10869;BMP180;62667;48.698;8.762;2022-10-16T06:33:10;95970.00;;;13.60
10869;BMP180;62667;48.698;8.762;2022-10-16T06:35:36;95975.00;;;13.60
10869;BMP180;62667;48.698;8.762;2022-10-16T06:38:03;95973.00;;;13.70
10869;BMP180;62667;48.698;8.762;2022-10-16T06:40:29;95973.00;;;13.70
10869;BMP180;62667;48.698;8.762;2022-10-16T06:42:58;95984.00;;;13.80
10869;BMP180;62667;48.698;8.762;2022-10-16T06:45:25;95981.00;;;13.80
10869;BMP180;62667;48.698;8.762;2022-10-16T06:47:51;95982.00;;;13.90
10869;BMP180;62667;48.698;8.762;2022-10-16T06:50:18;95987.00;;;13.90
10869;BMP180;62667;48.698;8.762;2022-10-16T06:52:44;95992.00;;;13.90
10869;BMP180;62667;48.698;8.762;2022-10-16T06:55:11;95992.00;;;14.00
10869;BMP180;62667;48.698;8.762;2022-10-16T06:57:37;95984.00;;;14.00
10869;BMP180;62667;48.698;8.762;2022-10-16T07:00:05;96002.00;;;14.10
10869;BMP180;62667;48.698;8.762;2022-10-16T07:02:33;96013.00;;;14.10
10869;BMP180;62667;48.698;8.762;2022-10-16T07:04:59;96020.00;;;14.00
10869;BMP180;62667;48.698;8.762;2022-10-16T07:07:25;96026.00;;;14.00
10869;BMP180;62667;48.698;8.762;2022-10-16T07:09:54;96029.00;;;14.00
10869;BMP180;62667;48.698;8.762;2022-10-16T07:12:21;96034.00;;;14.00
10869;BMP180;62667;48.698;8.762;2022-10-16T07:14:47;96043.00;;;14.10
10869;BMP180;62667;48.698;8.762;2022-10-16T07:17:14;96041.00;;;14.20
10869;BMP180;62667;48.698;8.762;2022-10-16T07:19:41;96031.00;;;14.20
10869;BMP180;62667;48.698;8.762;2022-10-16T07:22:09;96017.00;;;14.30
10869;BMP180;62667;48.698;8.762;2022-10-16T07:24:36;96039.00;;;14.40
10869;BMP180;62667;48.698;8.762;2022-10-16T07:27:02;96048.00;;;14.50
10869;BMP180;62667;48.698;8.762;2022-10-16T07:29:29;96026.00;;;14.50
10869;BMP180;62667;48.698;8.762;2022-10-16T07:31:55;96049.00;;;14.60
10869;BMP180;62667;48.698;8.762;2022-10-16T07:34:24;96053.00;;;14.70
10869;BMP180;62667;48.698;8.762;2022-10-16T07:36:55;96052.00;;;14.80
10869;BMP180;62667;48.698;8.762;2022-10-16T07:39:21;96059.00;;;14.90
10869;BMP180;62667;48.698;8.762;2022-10-16T07:41:47;96055.00;;;14.90
10869;BMP180;62667;48.698;8.762;2022-10-16T07:44:16;96051.00;;;14.90
10869;BMP180;62667;48.698;8.762;2022-10-16T07:46:42;96058.00;;;15.10
10869;BMP180;62667;48.698;8.762;2022-10-16T07:49:09;96053.00;;;15.20
10869;BMP180;62667;48.698;8.762;2022-10-16T07:51:36;96058.00;;;15.30
10869;BMP180;62667;48.698;8.762;2022-10-16T07:54:04;96069.00;;;15.50
10869;BMP180;62667;48.698;8.762;2022-10-16T07:56:31;96068.00;;;15.70
10869;BMP180;62667;48.698;8.762;2022-10-16T07:58:59;96057.00;;;15.80
10869;BMP180;62667;48.698;8.762;2022-10-16T08:01:27;96037.00;;;15.80
10869;BMP180;62667;48.698;8.762;2022-10-16T08:03:56;96073.00;;;15.90
10869;BMP180;62667;48.698;8.762;2022-10-16T08:06:23;96077.00;;;15.90
10869;BMP180;62667;48.698;8.762;2022-10-16T08:08:49;96083.00;;;15.90
10869;BMP180;62667;48.698;8.762;2022-10-16T08:11:16;96083.00;;;15.90
10869;BMP180;62667;48.698;8.762;2022-10-16T08:13:43;96088.00;;;15.70
10869;BMP180;62667;48.698;8.762;2022-10-16T08:16:10;96078.00;;;15.60
10869;BMP180;62667;48.698;8.762;2022-10-16T08:18:38;96089.00;;;15.70
10869;BMP180;62667;48.698;8.762;2022-10-16T08:21:06;96089.00;;;15.70
10869;BMP180;62667;48.698;8.762;2022-10-16T08:23:33;96084.00;;;15.80
10869;BMP180;62667;48.698;8.762;2022-10-16T08:26:04;96090.00;;;15.80
10869;BMP180;62667;48.698;8.762;2022-10-16T08:28:32;96082.00;;;15.90
10869;BMP180;62667;48.698;8.762;2022-10-16T08:31:07;96082.00;;;15.80
10869;BMP180;62667;48.698;8.762;2022-10-16T08:33:34;96093.00;;;15.70
10869;BMP180;62667;48.698;8.762;2022-10-16T08:36:01;96099.00;;;15.80
10869;BMP180;62667;48.698;8.762;2022-10-16T08:38:28;96102.00;;;16.00
10869;BMP180;62667;48.698;8.762;2022-10-16T08:41:08;96112.00;;;16.00
10869;BMP180;62667;48.698;8.762;2022-10-16T08:44:16;96125.00;;;16.20
10869;BMP180;62667;48.698;8.762;2022-10-16T08:46:55;96107.00;;;16.30
10869;BMP180;62667;48.698;8.762;2022-10-16T08:49:30;96124.00;;;16.60
10869;BMP180;62667;48.698;8.762;2022-10-16T08:51:59;96106.00;;;16.70
10869;BMP180;62667;48.698;8.762;2022-10-16T08:54:32;96111.00;;;16.80
10869;BMP180;62667;48.698;8.762;2022-10-16T08:57:12;96105.00;;;16.90
10869;BMP180;62667;48.698;8.762;2022-10-16T08:59:40;96104.00;;;16.90
10869;BMP180;62667;48.698;8.762;2022-10-16T09:02:28;96105.00;;;17.30
10869;BMP180;62667;48.698;8.762;2022-10-16T09:05:18;96116.00;;;17.50
10869;BMP180;62667;48.698;8.762;2022-10-16T09:08:01;96118.00;;;17.60
10869;BMP180;62667;48.698;8.762;2022-10-16T09:10:43;96120.00;;;17.30
10869;BMP180;62667;48.698;8.762;2022-10-16T09:13:22;96125.00;;;17.50
10869;BMP180;62667;48.698;8.762;2022-10-16T09:16:03;96121.00;;;17.30
10869;BMP180;62667;48.698;8.762;2022-10-16T09:18:39;96123.00;;;17.20
10869;BMP180;62667;48.698;8.762;2022-10-16T09:21:16;96132.00;;;17.20
10869;BMP180;62667;48.698;8.762;2022-10-16T09:23:44;96101.00;;;17.00
10869;BMP180;62667;48.698;8.762;2022-10-16T09:26:14;96127.00;;;17.00
10869;BMP180;62667;48.698;8.762;2022-10-16T09:28:41;96130.00;;;16.90
10869;BMP180;62667;48.698;8.762;2022-10-16T09:31:18;96136.00;;;16.90
10869;BMP180;62667;48.698;8.762;2022-10-16T09:33:50;96137.00;;;17.10
10869;BMP180;62667;48.698;8.762;2022-10-16T09:36:19;96126.00;;;17.50
10869;BMP180;62667;48.698;8.762;2022-10-16T09:38:46;96135.00;;;17.40
10869;BMP180;62667;48.698;8.762;2022-10-16T09:41:21;96137.00;;;17.70
10869;BMP180;62667;48.698;8.762;2022-10-16T09:43:55;96135.00;;;18.00
10869;BMP180;62667;48.698;8.762;2022-10-16T09:46:27;96130.00;;;18.00
10869;BMP180;62667;48.698;8.762;2022-10-16T09:48:57;96152.00;;;18.10
10869;BMP180;62667;48.698;8.762;2022-10-16T09:51:27;96143.00;;;18.30
10869;BMP180;62667;48.698;8.762;2022-10-16T09:53:59;96144.00;;;18.20
10869;BMP180;62667;48.698;8.762;2022-10-16T09:56:27;96151.00;;;18.70
10869;BMP180;62667;48.698;8.762;2022-10-16T09:58:59;96155.00;;;18.60
10869;BMP180;62667;48.698;8.762;2022-10-16T10:01:34;96158.00;;;18.50
10869;BMP180;62667;48.698;8.762;2022-10-16T10:04:04;96155.00;;;18.70
10869;BMP180;62667;48.698;8.762;2022-10-16T10:06:34;96160.00;;;19.30
10869;BMP180;62667;48.698;8.762;2022-10-16T10:09:18;96154.00;;;19.00
10869;BMP180;62667;48.698;8.762;2022-10-16T10:11:50;96157.00;;;18.90
10869;BMP180;62667;48.698;8.762;2022-10-16T10:14:27;96140.00;;;19.10
10869;BMP180;62667;48.698;8.762;2022-10-16T10:17:20;96164.00;;;19.10
10869;BMP180;62667;48.698;8.762;2022-10-16T10:19:51;96158.00;;;19.30
10869;BMP180;62667;48.698;8.762;2022-10-16T10:22:32;96167.00;;;19.60
10869;BMP180;62667;48.698;8.762;2022-10-16T10:25:41;96165.00;;;20.00
10869;BMP180;62667;48.698;8.762;2022-10-16T10:28:32;96164.00;;;19.70
10869;BMP180;62667;48.698;8.762;2022-10-16T10:31:14;96155.00;;;19.90
10869;BMP180;62667;48.698;8.762;2022-10-16T10:33:52;96159.00;;;20.40
10869;BMP180;62667;48.698;8.762;2022-10-16T10:36:29;96156.00;;;20.70
10869;BMP180;62667;48.698;8.762;2022-10-16T10:39:05;96143.00;;;20.90
10869;BMP180;62667;48.698;8.762;2022-10-16T10:42:07;96154.00;;;20.20
10869;BMP180;62667;48.698;8.762;2022-10-16T10:45:04;96156.00;;;20.30
10869;BMP180;62667;48.698;8.762;2022-10-16T10:47:48;96167.00;;;20.50
10869;BMP180;62667;48.698;8.762;2022-10-16T10:50:26;96162.00;;;20.80
10869;BMP180;62667;48.698;8.762;2022-10-16T10:53:06;96161.00;;;20.80
10869;BMP180;62667;48.698;8.762;2022-10-16T10:55:45;96161.00;;;20.90
10869;BMP180;62667;48.698;8.762;2022-10-16T10:58:43;96150.00;;;21.10
10869;BMP180;62667;48.698;8.762;2022-10-16T11:01:13;96166.00;;;21.40
10869;BMP180;62667;48.698;8.762;2022-10-16T11:04:01;96173.00;;;21.50
10869;BMP180;62667;48.698;8.762;2022-10-16T11:06:36;96177.00;;;21.10
10869;BMP180;62667;48.698;8.762;2022-10-16T11:09:15;96177.00;;;21.00
10869;BMP180;62667;48.698;8.762;2022-10-16T11:11:46;96177.00;;;20.90
10869;BMP180;62667;48.698;8.762;2022-10-16T11:14:21;96177.00;;;21.20
10869;BMP180;62667;48.698;8.762;2022-10-16T11:16:57;96175.00;;;21.40
10869;BMP180;62667;48.698;8.762;2022-10-16T11:19:36;96177.00;;;21.60
10869;BMP180;62667;48.698;8.762;2022-10-16T11:22:15;96171.00;;;21.40
10869;BMP180;62667;48.698;8.762;2022-10-16T11:24:49;96177.00;;;21.30
10869;BMP180;62667;48.698;8.762;2022-10-16T11:27:25;96164.00;;;21.60
10869;BMP180;62667;48.698;8.762;2022-10-16T11:30:00;96167.00;;;21.20
10869;BMP180;62667;48.698;8.762;2022-10-16T11:32:33;96164.00;;;21.40
10869;BMP180;62667;48.698;8.762;2022-10-16T11:35:14;96165.00;;;21.90
10869;BMP180;62667;48.698;8.762;2022-10-16T11:37:46;96168.00;;;21.50
10869;BMP180;62667;48.698;8.762;2022-10-16T11:40:24;96148.00;;;21.60
10869;BMP180;62667;48.698;8.762;2022-10-16T11:42:59;96153.00;;;21.70
10869;BMP180;62667;48.698;8.762;2022-10-16T11:45:36;96148.00;;;22.00
10869;BMP180;62667;48.698;8.762;2022-10-16T11:48:18;96154.00;;;22.30
10869;BMP180;62667;48.698;8.762;2022-10-16T11:50:52;96150.00;;;22.50
10869;BMP180;62667;48.698;8.762;2022-10-16T11:53:35;96147.00;;;22.70
10869;BMP180;62667;48.698;8.762;2022-10-16T11:56:04;96144.00;;;22.70
10869;BMP180;62667;48.698;8.762;2022-10-16T11:58:36;96151.00;;;23.10
10869;BMP180;62667;48.698;8.762;2022-10-16T12:01:19;96153.00;;;23.20
10869;BMP180;62667;48.698;8.762;2022-10-16T12:04:16;96158.00;;;23.30
10869;BMP180;62667;48.698;8.762;2022-10-16T12:06:47;96158.00;;;22.70
10869;BMP180;62667;48.698;8.762;2022-10-16T12:09:25;96170.00;;;22.70
10869;BMP180;62667;48.698;8.762;2022-10-16T12:11:52;96158.00;;;23.10
10869;BMP180;62667;48.698;8.762;2022-10-16T12:14:39;96154.00;;;23.90
10869;BMP180;62667;48.698;8.762;2022-10-16T12:17:26;96158.00;;;24.10
10869;BMP180;62667;48.698;8.762;2022-10-16T12:20:12;96148.00;;;23.90
10869;BMP180;62667;48.698;8.762;2022-10-16T12:22:48;96142.00;;;24.60
10869;BMP180;62667;48.698;8.762;2022-10-16T12:25:22;96174.00;;;23.20
10869;BMP180;62667;48.698;8.762;2022-10-16T12:28:02;96169.00;;;22.40
10869;BMP180;62667;48.698;8.762;2022-10-16T12:30:35;96171.00;;;22.70
10869;BMP180;62667;48.698;8.762;2022-10-16T12:33:05;96167.00;;;22.60
10869;BMP180;62667;48.698;8.762;2022-10-16T12:35:35;96157.00;;;22.50
10869;BMP180;62667;48.698;8.762;2022-10-16T12:38:16;96170.00;;;22.30
10869;BMP180;62667;48.698;8.762;2022-10-16T12:40:46;96138.00;;;22.80
10869;BMP180;62667;48.698;8.762;2022-10-16T12:43:36;96154.00;;;23.40
10869;BMP180;62667;48.698;8.762;2022-10-16T12:46:22;96156.00;;;24.30
10869;BMP180;62667;48.698;8.762;2022-10-16T12:48:49;96171.00;;;24.20
10869;BMP180;62667;48.698;8.762;2022-10-16T12:51:25;96169.00;;;23.80
10869;BMP180;62667;48.698;8.762;2022-10-16T12:54:00;96170.00;;;23.70
10869;BMP180;62667;48.698;8.762;2022-10-16T12:56:41;96175.00;;;23.70
10869;BMP180;62667;48.698;8.762;2022-10-16T12:59:25;96172.00;;;24.10
10869;BMP180;62667;48.698;8.762;2022-10-16T13:05:20;96162.00;;;25.60
10869;BMP180;62667;48.698;8.762;2022-10-16T13:08:09;96177.00;;;25.50
10869;BMP180;62667;48.698;8.762;2022-10-16T13:10:51;96181.00;;;25.20
10869;BMP180;62667;48.698;8.762;2022-10-16T13:13:57;96185.00;;;24.50
10869;BMP180;62667;48.698;8.762;2022-10-16T13:16:41;96183.00;;;24.50
10869;BMP180;62667;48.698;8.762;2022-10-16T13:19:20;96186.00;;;24.50
10869;BMP180;62667;48.698;8.762;2022-10-16T13:21:57;96195.00;;;24.30
10869;BMP180;62667;48.698;8.762;2022-10-16T13:24:48;96193.00;;;24.60
10869;BMP180;62667;48.698;8.762;2022-10-16T13:27:34;96193.00;;;24.10
10869;BMP180;62667;48.698;8.762;2022-10-16T13:30:13;96187.00;;;23.80
10869;BMP180;62667;48.698;8.762;2022-10-16T13:32:46;96185.00;;;23.90
10869;BMP180;62667;48.698;8.762;2022-10-16T13:35:23;96189.00;;;23.90
10869;BMP180;62667;48.698;8.762;2022-10-16T13:37:50;96182.00;;;23.90
10869;BMP180;62667;48.698;8.762;2022-10-16T13:40:23;96194.00;;;23.70
10869;BMP180;62667;48.698;8.762;2022-10-16T13:42:51;96187.00;;;23.50
10869;BMP180;62667;48.698;8.762;2022-10-16T13:45:20;96188.00;;;23.60
10869;BMP180;62667;48.698;8.762;2022-10-16T13:47:47;96188.00;;;23.70
10869;BMP180;62667;48.698;8.762;2022-10-16T13:50:17;96190.00;;;23.70
10869;BMP180;62667;48.698;8.762;2022-10-16T13:52:44;96185.00;;;23.50
10869;BMP180;62667;48.698;8.762;2022-10-16T13:55:12;96189.00;;;23.50
10869;BMP180;62667;48.698;8.762;2022-10-16T13:57:39;96191.00;;;23.70
10869;BMP180;62667;48.698;8.762;2022-10-16T14:00:21;96190.00;;;24.10
10869;BMP180;62667;48.698;8.762;2022-10-16T14:02:57;96193.00;;;24.60
10869;BMP180;62667;48.698;8.762;2022-10-16T14:05:25;96190.00;;;24.90
10869;BMP180;62667;48.698;8.762;2022-10-16T14:07:52;96169.00;;;26.50
10869;BMP180;62667;48.698;8.762;2022-10-16T14:10:23;96176.00;;;27.40
10869;BMP180;62667;48.698;8.762;2022-10-16T14:12:58;96191.00;;;28.30
10869;BMP180;62667;48.698;8.762;2022-10-16T14:15:26;96196.00;;;28.20
10869;BMP180;62667;48.698;8.762;2022-10-16T14:17:54;96197.00;;;27.70
10869;BMP180;62667;48.698;8.762;2022-10-16T14:20:28;96199.00;;;27.40
10869;BMP180;62667;48.698;8.762;2022-10-16T14:23:03;96184.00;;;28.30
10869;BMP180;62667;48.698;8.762;2022-10-16T14:25:32;96171.00;;;30.40
10869;BMP180;62667;48.698;8.762;2022-10-16T14:28:04;96176.00;;;32.80
10869;BMP180;62667;48.698;8.762;2022-10-16T14:30:35;96194.00;;;33.90
10869;BMP180;62667;48.698;8.762;2022-10-16T14:33:05;96218.00;;;34.00
10869;BMP180;62667;48.698;8.762;2022-10-16T14:35:33;96198.00;;;32.60
10869;BMP180;62667;48.698;8.762;2022-10-16T14:38:02;96214.00;;;31.80